Time;durP1;ratioP1;P1;durP2;ratioP2;P2;SDS_P1;SDS_P2;PMS_P1;PMS_P2;Temp;Humidity;BMP_temperature;BMP_pressure;BME280_temperature;BME280_humidity;BME280_pressure;Samples;Min_cycle;Max_cycle;Signal;HPM_P1;HPM_P2
2022/10/13 00:00:32;;;;;;;13.50;10.63;;;12.90;99.90;;;;;;5113899;28;20462;-54
2022/10/13 00:03:00;;;;;;;17.27;11.60;;;12.80;99.90;;;;;;5115712;28;20984;-55
2022/10/13 00:05:28;;;;;;;13.40;11.87;;;12.70;99.90;;;;;;5116185;28;20450;-56
2022/10/13 00:07:56;;;;;;;19.47;12.73;;;12.70;99.90;;;;;;5114208;28;20457;-56
2022/10/13 00:10:23;;;;;;;16.37;12.30;;;12.60;99.90;;;;;;5115777;28;20937;-56
2022/10/13 00:12:50;;;;;;;15.80;11.87;;;12.60;99.90;;;;;;5115593;28;20458;-55
2022/10/13 00:15:20;;;;;;;19.93;13.00;;;12.70;99.90;;;;;;5113863;28;20807;-56
2022/10/13 00:17:47;;;;;;;21.20;16.20;;;12.70;99.90;;;;;;5115716;28;20937;-56
2022/10/13 00:20:14;;;;;;;19.97;15.27;;;12.80;99.90;;;;;;5115367;28;20450;-55
2022/10/13 00:22:41;;;;;;;21.17;14.90;;;12.90;99.90;;;;;;5114009;27;20482;-56
2022/10/13 00:25:09;;;;;;;22.63;14.87;;;13.00;99.90;;;;;;5115388;28;20450;-56
2022/10/13 00:27:36;;;;;;;18.37;15.00;;;13.10;99.90;;;;;;5114481;28;20442;-55
2022/10/13 00:30:04;;;;;;;24.60;16.30;;;13.10;99.90;;;;;;5113940;28;20466;-55
2022/10/13 00:32:33;;;;;;;21.80;16.27;;;13.10;99.90;;;;;;5115315;28;20509;-55
2022/10/13 00:35:00;;;;;;;24.73;17.17;;;13.20;99.90;;;;;;5114984;28;20455;-56
2022/10/13 00:37:27;;;;;;;22.67;16.90;;;13.20;99.90;;;;;;5113901;28;20462;-55
2022/10/13 00:39:54;;;;;;;25.43;15.43;;;13.30;99.90;;;;;;5115120;28;20442;-55
2022/10/13 00:42:22;;;;;;;18.50;14.63;;;13.40;99.90;;;;;;5115005;28;20447;-55
2022/10/13 00:45:07;;;;;;;22.67;15.50;;;13.40;99.90;;;;;;5114167;28;20446;-55
2022/10/13 00:47:40;;;;;;;21.47;15.37;;;13.40;99.90;;;;;;5115127;28;20829;-55
2022/10/13 00:50:12;;;;;;;22.50;14.47;;;13.40;99.90;;;;;;5114902;28;20898;-55
2022/10/13 00:52:41;;;;;;;19.00;15.40;;;13.30;99.90;;;;;;5114340;28;20466;-55
2022/10/13 00:55:11;;;;;;;21.30;17.63;;;13.20;99.90;;;;;;5114400;28;20457;-56
2022/10/13 00:57:41;;;;;;;26.70;16.67;;;13.20;99.90;;;;;;5115271;28;20833;-57
2022/10/13 01:00:10;;;;;;;22.43;17.23;;;13.20;99.90;;;;;;5113785;28;20457;-55
2022/10/13 01:02:38;;;;;;;28.87;19.67;;;13.20;99.90;;;;;;5114449;28;20541;-55
2022/10/13 01:05:07;;;;;;;23.00;14.63;;;13.20;99.90;;;;;;5115302;28;20450;-55
2022/10/13 01:07:35;;;;;;;23.80;16.57;;;13.10;99.90;;;;;;5113714;28;20446;-55
2022/10/13 01:10:04;;;;;;;24.50;16.23;;;13.00;99.90;;;;;;5114357;28;20807;-56
2022/10/13 01:18:56;;;;;;;19.87;15.10;;;13.00;99.90;;;;;;5098558;28;20435;-55
2022/10/13 01:21:31;;;;;;;24.40;16.90;;;12.90;99.90;;;;;;5113244;28;20411;-55
2022/10/13 01:24:34;;;;;;;20.37;13.60;;;12.90;99.90;;;;;;5113859;28;20501;-55
2022/10/13 01:27:12;;;;;;;22.30;16.87;;;12.90;99.90;;;;;;5113342;28;20451;-55
2022/10/13 01:30:12;;;;;;;18.77;15.40;;;12.90;99.90;;;;;;5112588;28;20426;-56
2022/10/13 01:33:04;;;;;;;21.70;16.67;;;12.90;99.90;;;;;;5069559;28;20478;-56
2022/10/13 01:35:35;;;;;;;24.77;15.93;;;;;;;;;;5108852;28;20509;-56
2022/10/13 01:38:09;;;;;;;16.37;13.80;;;12.80;99.90;;;;;;5114217;28;20434;-56
2022/10/13 01:40:42;;;;;;;20.97;16.07;;;12.60;99.90;;;;;;5114477;28;20431;-56
2022/10/13 01:43:16;;;;;;;25.93;16.33;;;12.60;99.90;;;;;;5112509;28;21050;-56
2022/10/13 01:45:52;;;;;;;23.00;16.73;;;12.60;99.90;;;;;;5114007;28;20439;-56
2022/10/13 01:48:32;;;;;;;21.23;15.57;;;12.60;99.90;;;;;;5110511;27;20578;-54
2022/10/13 01:51:05;;;;;;;23.87;15.83;;;12.60;99.90;;;;;;5109112;28;20782;-54
2022/10/13 01:53:33;;;;;;;24.60;16.17;;;12.60;99.90;;;;;;5110567;28;20459;-55
2022/10/13 01:56:03;;;;;;;22.33;15.67;;;12.60;99.90;;;;;;5110653;28;20447;-55
2022/10/13 01:58:36;;;;;;;26.33;15.87;;;12.60;99.90;;;;;;5109194;28;20840;-55
2022/10/13 02:01:12;;;;;;;20.93;16.50;;;12.60;99.90;;;;;;5110352;28;20491;-55
2022/10/13 02:03:52;;;;;;;20.10;16.37;;;12.60;99.90;;;;;;5110305;28;20894;-56
2022/10/13 02:06:27;;;;;;;31.40;17.77;;;12.70;99.90;;;;;;5108578;28;20431;-55
2022/10/13 02:09:02;;;;;;;25.50;18.30;;;12.70;99.90;;;;;;5110237;28;20437;-55
2022/10/13 02:11:30;;;;;;;24.37;15.93;;;12.80;99.90;;;;;;5109899;28;20434;-55
2022/10/13 02:14:05;;;;;;;22.47;15.40;;;12.60;99.90;;;;;;5108833;28;20450;-55
2022/10/13 02:16:38;;;;;;;31.23;17.73;;;12.60;99.90;;;;;;5110438;28;20450;-55
2022/10/13 02:19:09;;;;;;;23.40;16.87;;;12.70;99.90;;;;;;5110036;28;20499;-55
2022/10/13 02:21:36;;;;;;;27.10;17.97;;;12.80;99.90;;;;;;5108581;28;20481;-55
2022/10/13 02:24:05;;;;;;;26.20;16.33;;;12.90;99.90;;;;;;5109698;28;20457;-55
2022/10/13 02:26:33;;;;;;;25.17;18.23;;;12.90;99.90;;;;;;5109664;28;20849;-55
2022/10/13 02:29:00;;;;;;;21.67;16.77;;;13.00;99.90;;;;;;5108337;28;20453;-55
2022/10/13 02:31:27;;;;;;;24.03;16.93;;;13.00;99.90;;;;;;5109940;28;20848;-56
2022/10/13 02:33:54;;;;;;;27.13;18.13;;;13.10;99.90;;;;;;5109870;28;20451;-55
2022/10/13 02:36:23;;;;;;;25.90;17.13;;;13.10;99.90;;;;;;5108675;28;20980;-55
2022/10/13 02:38:50;;;;;;;23.87;16.23;;;13.20;99.90;;;;;;5109907;28;20469;-56
2022/10/13 02:41:17;;;;;;;23.13;17.50;;;13.20;99.90;;;;;;5109678;28;20512;-55
2022/10/13 02:43:44;;;;;;;21.60;16.33;;;13.10;99.90;;;;;;5108600;28;20449;-55
2022/10/13 02:46:11;;;;;;;22.70;16.87;;;13.20;99.90;;;;;;5109405;28;20443;-55
2022/10/13 02:48:38;;;;;;;25.73;18.27;;;13.20;99.90;;;;;;5109490;28;20469;-55
2022/10/13 02:51:05;;;;;;;25.27;17.70;;;13.20;99.90;;;;;;5108655;28;20453;-55
2022/10/13 02:53:33;;;;;;;28.50;18.97;;;13.20;99.90;;;;;;5109235;28;20546;-54
2022/10/13 02:56:00;;;;;;;26.47;17.93;;;13.20;99.90;;;;;;5109166;28;20974;-54
2022/10/13 02:58:27;;;;;;;17.97;15.60;;;13.30;99.90;;;;;;5102791;28;20770;-55
2022/10/13 03:00:54;;;;;;;24.93;16.40;;;13.30;99.90;;;;;;5095566;28;20454;-55
2022/10/13 03:03:21;;;;;;;21.70;15.50;;;13.30;99.90;;;;;;5095892;28;20463;-54
2022/10/13 03:05:48;;;;;;;23.30;17.30;;;13.30;99.90;;;;;;5094977;28;20451;-55
2022/10/13 03:08:15;;;;;;;29.50;17.60;;;13.40;99.90;;;;;;5095304;28;20529;-55
2022/10/13 03:10:44;;;;;;;28.27;17.97;;;13.40;99.90;;;;;;5095624;28;20462;-55
2022/10/13 03:13:11;;;;;;;26.83;16.60;;;13.30;99.90;;;;;;5094427;28;20471;-55
2022/10/13 03:15:38;;;;;;;30.20;16.80;;;13.30;99.90;;;;;;5095324;28;20501;-55
2022/10/13 03:18:05;;;;;;;25.53;16.20;;;13.30;99.90;;;;;;5095823;28;20451;-55
2022/10/13 03:20:32;;;;;;;26.53;16.40;;;13.30;99.90;;;;;;5094767;28;20498;-55
2022/10/13 03:22:59;;;;;;;25.90;17.83;;;13.40;99.90;;;;;;5095206;28;20478;-55
2022/10/13 03:25:26;;;;;;;25.40;17.57;;;13.40;99.90;;;;;;5095022;28;20931;-55
2022/10/13 03:27:55;;;;;;;23.63;16.27;;;13.50;99.90;;;;;;5094755;28;20809;-55
2022/10/13 03:30:22;;;;;;;32.00;18.03;;;13.50;99.90;;;;;;5094746;28;20454;-55
2022/10/13 03:32:49;;;;;;;23.80;16.00;;;13.40;99.90;;;;;;5094856;28;20468;-54
2022/10/13 03:35:16;;;;;;;20.47;17.00;;;13.50;99.90;;;;;;5094598;28;20827;-56
2022/10/13 03:37:43;;;;;;;25.33;17.60;;;13.50;99.90;;;;;;5094625;28;20480;-54
2022/10/13 03:40:11;;;;;;;25.50;15.80;;;13.50;99.90;;;;;;5094779;28;20444;-54
2022/10/13 03:42:39;;;;;;;21.47;14.90;;;13.50;99.90;;;;;;5093917;28;20536;-54
2022/10/13 03:45:09;;;;;;;22.63;15.30;;;13.60;99.90;;;;;;5094456;28;20477;-55
2022/10/13 03:47:36;;;;;;;20.73;14.47;;;13.60;99.90;;;;;;5093972;28;20491;-55
2022/10/13 03:50:05;;;;;;;24.80;16.67;;;13.70;99.90;;;;;;5093272;28;20505;-55
2022/10/13 03:52:33;;;;;;;23.20;15.00;;;13.60;99.90;;;;;;5094400;28;20997;-54
2022/10/13 03:55:00;;;;;;;22.43;15.60;;;13.60;99.90;;;;;;5094429;28;20938;-54
2022/10/13 03:57:27;;;;;;;20.50;14.73;;;13.60;99.90;;;;;;5093683;28;20443;-54
2022/10/13 03:59:55;;;;;;;23.73;15.97;;;13.70;99.90;;;;;;5094496;28;21052;-55
2022/10/13 04:02:23;;;;;;;23.10;14.63;;;13.70;99.90;;;;;;5094255;28;20475;-55
2022/10/13 04:04:50;;;;;;;22.33;14.27;;;13.70;99.90;;;;;;5093221;28;20443;-54
2022/10/13 04:07:17;;;;;;;21.60;15.50;;;13.80;99.90;;;;;;5094269;28;20480;-55
2022/10/13 04:09:44;;;;;;;26.47;15.00;;;13.80;99.90;;;;;;5093390;28;20451;-55
2022/10/13 04:12:12;;;;;;;24.80;15.13;;;13.70;99.90;;;;;;5093061;28;20494;-55
2022/10/13 04:14:39;;;;;;;21.97;15.50;;;13.70;99.90;;;;;;5094523;28;20500;-55
2022/10/13 04:17:06;;;;;;;22.63;14.60;;;13.70;99.90;;;;;;5094463;28;20447;-54
2022/10/13 04:19:35;;;;;;;19.97;14.70;;;13.80;99.90;;;;;;5092887;28;20443;-55
2022/10/13 04:22:02;;;;;;;23.23;14.80;;;13.70;99.90;;;;;;5094059;28;20476;-55
2022/10/13 04:24:29;;;;;;;25.70;15.60;;;13.70;99.90;;;;;;5093738;28;20447;-55
2022/10/13 04:26:56;;;;;;;23.17;15.67;;;13.60;99.90;;;;;;5093020;28;20497;-54
2022/10/13 04:29:23;;;;;;;18.33;14.80;;;13.70;99.90;;;;;;5093970;28;20497;-55
2022/10/13 04:31:50;;;;;;;26.17;15.07;;;13.70;99.90;;;;;;5093553;28;21021;-55
2022/10/13 04:34:19;;;;;;;27.53;15.37;;;13.70;99.90;;;;;;5092902;28;20467;-55
2022/10/13 04:36:50;;;;;;;28.53;17.40;;;13.70;99.90;;;;;;5093798;28;20443;-55
2022/10/13 04:39:17;;;;;;;22.00;14.23;;;13.70;99.90;;;;;;5093811;28;20432;-55
2022/10/13 04:41:44;;;;;;;18.63;15.63;;;13.70;99.90;;;;;;5092927;28;20463;-54
2022/10/13 04:44:11;;;;;;;16.77;14.10;;;13.70;99.90;;;;;;5093482;28;20493;-54
2022/10/13 04:46:38;;;;;;;20.10;13.37;;;13.80;99.90;;;;;;5092936;28;20986;-55
2022/10/13 04:49:05;;;;;;;20.63;15.30;;;13.70;99.90;;;;;;5092876;28;20548;-54
2022/10/13 04:51:33;;;;;;;22.73;15.20;;;13.70;99.90;;;;;;5093398;28;20850;-54
2022/10/13 04:54:04;;;;;;;19.33;15.00;;;13.70;99.90;;;;;;5093636;28;20526;-55
2022/10/13 04:56:31;;;;;;;20.67;15.80;;;13.70;99.90;;;;;;5093036;28;20435;-55
2022/10/13 04:58:59;;;;;;;19.30;14.90;;;13.60;99.90;;;;;;5093370;28;20447;-56
2022/10/13 05:01:27;;;;;;;21.93;14.40;;;13.50;99.90;;;;;;5093446;28;20500;-54
2022/10/13 05:03:55;;;;;;;19.47;13.90;;;13.50;99.90;;;;;;5092137;28;21005;-54
2022/10/13 05:06:24;;;;;;;18.00;14.00;;;13.60;99.90;;;;;;5092917;28;20443;-54
2022/10/13 05:08:51;;;;;;;18.80;13.40;;;13.50;99.90;;;;;;5093450;28;20483;-55
2022/10/13 05:11:20;;;;;;;20.83;13.97;;;13.50;99.90;;;;;;5092274;28;20505;-55
2022/10/13 05:13:48;;;;;;;19.33;13.43;;;13.40;99.90;;;;;;5092602;28;20493;-55
2022/10/13 05:16:17;;;;;;;24.07;15.10;;;13.40;99.90;;;;;;5093004;28;20485;-54
2022/10/13 05:18:44;;;;;;;27.77;13.93;;;13.40;99.90;;;;;;5092150;28;20420;-55
2022/10/13 05:21:14;;;;;;;17.47;14.50;;;13.30;99.90;;;;;;5092663;28;20447;-55
2022/10/13 05:23:42;;;;;;;19.47;13.40;;;13.30;99.90;;;;;;5092406;28;20459;-55
2022/10/13 05:26:11;;;;;;;21.07;14.83;;;13.30;99.90;;;;;;5091878;28;20538;-54
2022/10/13 05:28:40;;;;;;;16.07;13.60;;;13.30;99.90;;;;;;5091704;28;20978;-55
2022/10/13 05:31:13;;;;;;;25.53;14.73;;;13.30;99.90;;;;;;5092904;28;20452;-55
2022/10/13 05:33:41;;;;;;;25.30;15.67;;;13.40;99.90;;;;;;5091776;28;20474;-54
2022/10/13 05:36:10;;;;;;;19.07;14.60;;;13.40;99.90;;;;;;5092387;28;20447;-55
2022/10/13 05:38:37;;;;;;;20.70;14.70;;;13.30;99.90;;;;;;5092355;28;20819;-55
2022/10/13 05:41:05;;;;;;;19.30;13.23;;;13.40;99.90;;;;;;5091824;28;20918;-55
2022/10/13 05:43:33;;;;;;;20.20;13.67;;;13.40;99.90;;;;;;5092648;28;20471;-55
2022/10/13 05:46:01;;;;;;;24.90;13.47;;;13.40;99.90;;;;;;5092102;28;20856;-55
2022/10/13 05:48:29;;;;;;;24.87;14.83;;;13.40;99.90;;;;;;5090944;28;20460;-55
2022/10/13 05:51:00;;;;;;;21.57;14.83;;;13.30;99.90;;;;;;5092802;28;20470;-55
2022/10/13 05:53:29;;;;;;;28.20;15.23;;;13.40;99.90;;;;;;5092019;28;20927;-55
2022/10/13 05:56:04;;;;;;;23.10;14.30;;;13.30;99.90;;;;;;5091123;28;20447;-55
2022/10/13 05:58:32;;;;;;;21.40;14.33;;;13.20;99.90;;;;;;5092669;28;20425;-54
2022/10/13 06:01:01;;;;;;;24.87;16.27;;;13.20;99.90;;;;;;5092489;28;20482;-54
2022/10/13 06:03:29;;;;;;;17.63;15.37;;;13.20;99.90;;;;;;5090968;28;20474;-55
2022/10/13 06:05:56;;;;;;;23.40;15.27;;;13.20;99.90;;;;;;5091901;28;20483;-55
2022/10/13 06:08:23;;;;;;;20.23;14.70;;;13.20;99.90;;;;;;5091874;28;20985;-55
2022/10/13 06:10:51;;;;;;;23.93;15.80;;;13.30;99.90;;;;;;5090484;28;20451;-55
2022/10/13 06:13:18;;;;;;;24.10;15.73;;;13.40;99.90;;;;;;5092097;28;20444;-55
2022/10/13 06:15:45;;;;;;;26.23;16.70;;;13.40;99.90;;;;;;5092146;28;20452;-55
2022/10/13 06:18:13;;;;;;;19.93;14.67;;;13.30;99.90;;;;;;5092004;28;20505;-55
2022/10/13 06:20:40;;;;;;;22.50;15.17;;;13.40;99.90;;;;;;5092201;28;20824;-55
2022/10/13 06:23:07;;;;;;;21.90;14.93;;;13.40;99.90;;;;;;5092001;28;20467;-55
2022/10/13 06:25:35;;;;;;;18.33;13.20;;;13.40;99.90;;;;;;5090946;28;20447;-54
2022/10/13 06:28:02;;;;;;;20.97;14.80;;;13.40;99.90;;;;;;5091989;28;21000;-55
2022/10/13 06:30:29;;;;;;;20.50;14.07;;;13.50;99.90;;;;;;5092180;28;20804;-55
2022/10/13 06:32:57;;;;;;;21.73;14.43;;;13.60;99.90;;;;;;5090826;28;21024;-55
2022/10/13 06:35:25;;;;;;;20.43;14.60;;;13.50;99.90;;;;;;5095901;28;20451;-55
2022/10/13 06:37:52;;;;;;;26.60;15.73;;;13.50;99.90;;;;;;5096021;28;20934;-55
2022/10/13 06:40:19;;;;;;;25.60;15.70;;;13.50;99.90;;;;;;5095370;28;20444;-55
2022/10/13 06:42:50;;;;;;;24.70;17.20;;;13.50;99.90;;;;;;5095822;28;20482;-55
2022/10/13 06:45:18;;;;;;;22.47;16.87;;;13.50;99.90;;;;;;5095315;28;20462;-55
2022/10/13 06:47:45;;;;;;;26.00;15.87;;;13.60;99.90;;;;;;5094569;28;20482;-55
2022/10/13 06:50:13;;;;;;;28.83;15.10;;;13.50;99.90;;;;;;5095348;28;20475;-54
2022/10/13 06:52:42;;;;;;;21.20;15.07;;;13.60;99.90;;;;;;5095038;28;20475;-55
2022/10/13 06:55:09;;;;;;;19.40;15.70;;;13.60;99.90;;;;;;5094683;28;20805;-55
2022/10/13 06:57:37;;;;;;;24.17;16.63;;;13.70;99.90;;;;;;5095202;28;20926;-54
2022/10/13 07:00:05;;;;;;;22.30;16.03;;;13.70;99.90;;;;;;5095044;28;20466;-54
2022/10/13 07:02:33;;;;;;;25.83;17.07;;;13.80;99.90;;;;;;5094332;28;20461;-55
2022/10/13 07:05:00;;;;;;;23.90;16.20;;;13.80;99.90;;;;;;5095097;28;20447;-55
2022/10/13 07:07:27;;;;;;;18.07;14.03;;;13.80;99.90;;;;;;5095231;28;20455;-56
2022/10/13 07:09:55;;;;;;;24.70;16.27;;;13.80;99.90;;;;;;5094543;28;20479;-55
2022/10/13 07:12:22;;;;;;;20.23;15.70;;;13.80;99.90;;;;;;5094205;28;20962;-54
2022/10/13 07:14:49;;;;;;;23.63;14.23;;;13.80;99.90;;;;;;5094992;28;20428;-54
2022/10/13 07:17:16;;;;;;;20.73;16.30;;;13.80;99.90;;;;;;5094524;28;20455;-54
2022/10/13 07:19:46;;;;;;;15.70;13.80;;;13.90;99.90;;;;;;5095166;28;20455;-54
2022/10/13 07:22:14;;;;;;;23.80;14.60;;;13.90;99.90;;;;;;5094997;28;20476;-55
2022/10/13 07:24:41;;;;;;;25.57;12.77;;;13.80;99.90;;;;;;5093655;28;21009;-54
2022/10/13 07:27:09;;;;;;;20.27;13.97;;;13.80;99.90;;;;;;5094419;28;20828;-55
2022/10/13 07:29:36;;;;;;;19.73;13.60;;;13.80;99.90;;;;;;5094514;28;20481;-54
2022/10/13 07:32:03;;;;;;;18.73;14.43;;;13.80;99.90;;;;;;5092771;28;20520;-55
2022/10/13 07:34:30;;;;;;;19.93;13.90;;;13.80;99.90;;;;;;5094725;28;20447;-54
2022/10/13 07:36:57;;;;;;;20.37;14.00;;;13.70;99.90;;;;;;5094775;28;20580;-56
2022/10/13 07:39:24;;;;;;;19.43;14.57;;;13.90;99.90;;;;;;5092613;28;20533;-55
2022/10/13 07:41:51;;;;;;;17.30;13.53;;;13.90;99.90;;;;;;5094424;28;20463;-55
2022/10/13 07:44:20;;;;;;;17.93;13.57;;;14.10;99.90;;;;;;5094473;28;20501;-56
2022/10/13 07:46:47;;;;;;;18.50;13.87;;;14.20;99.90;;;;;;5092216;28;20550;-56
2022/10/13 07:49:14;;;;;;;16.13;13.47;;;14.10;99.90;;;;;;5094487;28;20483;-55
2022/10/13 07:51:40;;;;;;;16.83;12.77;;;14.30;99.90;;;;;;5094601;28;20464;-55
2022/10/13 07:54:07;;;;;;;20.17;14.67;;;14.20;99.90;;;;;;5092105;28;20497;-55
2022/10/13 07:56:35;;;;;;;21.40;12.90;;;14.10;99.90;;;;;;5094256;28;20477;-55
2022/10/13 07:59:03;;;;;;;17.77;13.17;;;14.10;99.90;;;;;;5094601;28;20444;-56
2022/10/13 08:01:31;;;;;;;18.83;13.30;;;14.20;99.90;;;;;;5092692;28;20463;-56
2022/10/13 08:03:58;;;;;;;15.67;11.97;;;14.30;99.90;;;;;;5093694;28;20447;-55
2022/10/13 08:06:25;;;;;;;18.33;13.20;;;14.40;99.90;;;;;;5094180;28;20512;-55
2022/10/13 08:08:53;;;;;;;17.40;13.10;;;14.40;99.90;;;;;;5093048;28;20479;-56
2022/10/13 08:11:20;;;;;;;25.37;13.60;;;14.50;99.90;;;;;;5093986;28;20471;-55
2022/10/13 08:13:48;;;;;;;17.90;12.30;;;14.60;99.90;;;;;;5094007;28;20647;-55
2022/10/13 08:16:15;;;;;;;19.60;13.00;;;14.60;99.90;;;;;;5092962;28;20475;-55
2022/10/13 08:18:44;;;;;;;16.33;13.00;;;14.60;99.90;;;;;;5094439;28;20428;-56
2022/10/13 08:21:15;;;;;;;14.90;11.80;;;14.70;99.90;;;;;;5093906;28;20444;-55
2022/10/13 08:23:42;;;;;;;20.90;12.53;;;14.60;99.90;;;;;;5092788;28;20786;-55
2022/10/13 08:26:16;;;;;;;15.53;11.70;;;14.60;99.90;;;;;;5093499;28;20856;-55
2022/10/13 08:28:43;;;;;;;19.03;11.23;;;14.50;99.90;;;;;;5094206;28;20452;-55
2022/10/13 08:31:10;;;;;;;17.43;11.50;;;14.60;99.90;;;;;;5092789;28;20436;-55
2022/10/13 08:33:37;;;;;;;19.23;12.50;;;14.70;99.90;;;;;;5093547;28;20475;-56
2022/10/13 08:36:06;;;;;;;21.33;11.00;;;14.80;99.90;;;;;;5093293;28;20501;-56
2022/10/13 08:38:33;;;;;;;15.47;11.30;;;15.00;99.90;;;;;;5092291;28;20512;-55
2022/10/13 08:41:01;;;;;;;18.47;13.47;;;15.10;99.90;;;;;;5093587;28;20961;-56
2022/10/13 08:43:28;;;;;;;18.80;11.87;;;15.20;99.90;;;;;;5093325;28;20512;-55
2022/10/13 08:45:59;;;;;;;16.30;10.87;;;15.20;99.90;;;;;;5092151;28;20444;-56
2022/10/13 08:48:30;;;;;;;19.03;12.10;;;15.30;99.90;;;;;;5093189;28;20479;-55
2022/10/13 08:51:01;;;;;;;14.57;10.27;;;15.40;99.90;;;;;;5093371;28;20432;-55
2022/10/13 08:53:33;;;;;;;16.37;10.80;;;15.40;99.90;;;;;;5092108;28;20466;-55
2022/10/13 08:56:05;;;;;;;17.30;9.37;;;15.50;99.90;;;;;;5071943;28;20419;-56
2022/10/13 08:58:34;;;;;;;15.03;11.20;;;15.60;99.90;;;;;;5088081;28;20465;-55
2022/10/13 09:01:12;;;;;;;16.30;10.90;;;15.50;99.90;;;;;;5091747;28;20595;-55
2022/10/13 09:03:48;;;;;;;16.17;10.27;;;15.50;99.90;;;;;;5092551;28;20579;-55
2022/10/13 09:06:18;;;;;;;13.67;9.87;;;15.50;99.90;;;;;;5092721;28;20952;-56
2022/10/13 09:08:53;;;;;;;17.60;10.67;;;15.50;99.90;;;;;;5091834;28;20468;-55
2022/10/13 09:11:21;;;;;;;19.10;10.80;;;15.60;99.90;;;;;;5092848;28;20431;-56
2022/10/13 09:13:48;;;;;;;17.90;11.70;;;15.70;99.90;;;;;;5092299;28;20448;-56
2022/10/13 09:16:15;;;;;;;18.10;9.80;;;15.80;99.90;;;;;;5091615;28;20438;-55
2022/10/13 09:18:42;;;;;;;19.43;9.20;;;15.90;99.90;;;;;;5092730;28;20436;-55
2022/10/13 09:21:15;;;;;;;17.73;11.40;;;16.10;99.90;;;;;;5092620;28;20496;-55
2022/10/13 09:23:42;;;;;;;15.90;10.83;;;16.00;99.90;;;;;;5090015;28;20997;-56
2022/10/13 09:26:18;;;;;;;12.60;9.50;;;16.00;99.90;;;;;;5071985;28;20488;-56
2022/10/13 09:28:46;;;;;;;11.63;9.00;;;16.00;99.90;;;;;;5071660;28;20823;-56
2022/10/13 09:31:17;;;;;;;13.70;10.30;;;15.90;99.90;;;;;;5072121;28;20448;-56
2022/10/13 09:33:45;;;;;;;10.67;8.47;;;16.00;99.90;;;;;;5072036;28;20458;-56
2022/10/13 09:36:14;;;;;;;13.13;8.40;;;16.00;99.90;;;;;;5071294;28;20459;-56
2022/10/13 09:38:44;;;;;;;20.77;8.83;;;16.00;99.90;;;;;;5072085;28;20480;-56
2022/10/13 09:41:21;;;;;;;14.00;8.57;;;16.10;99.90;;;;;;5072641;28;20425;-56
2022/10/13 09:44:00;;;;;;;16.77;8.93;;;16.00;99.90;;;;;;5070900;28;20531;-56
2022/10/13 09:46:31;;;;;;;10.53;8.50;;;16.00;99.90;;;;;;5071987;28;20484;-57
2022/10/13 09:49:04;;;;;;;15.47;9.37;;;16.30;99.90;;;;;;5072019;28;21061;-56
2022/10/13 09:51:37;;;;;;;12.30;7.70;;;16.30;99.90;;;;;;5070617;28;20788;-56
2022/10/13 09:54:06;;;;;;;14.53;8.23;;;16.40;99.90;;;;;;5072002;28;20445;-56
2022/10/13 09:56:41;;;;;;;12.03;8.60;;;16.20;99.90;;;;;;5072523;28;20449;-56
2022/10/13 09:59:20;;;;;;;12.10;9.00;;;16.30;99.90;;;;;;5070549;28;20428;-57
2022/10/13 10:01:49;;;;;;;13.73;8.07;;;16.50;99.90;;;;;;5071809;28;20467;-56
2022/10/13 10:04:22;;;;;;;10.27;6.80;;;16.50;99.90;;;;;;5071929;28;20449;-56
2022/10/13 10:06:49;;;;;;;7.70;6.90;;;16.70;99.90;;;;;;5069815;28;20895;-56
2022/10/13 10:09:34;;;;;;;10.80;7.67;;;16.60;99.90;;;;;;5074714;28;20484;-56
2022/10/13 10:12:04;;;;;;;9.33;8.43;;;16.70;99.90;;;;;;5075922;28;20974;-56
2022/10/13 10:14:33;;;;;;;10.93;8.07;;;16.70;99.90;;;;;;5073427;28;20448;-56
2022/10/13 10:17:07;;;;;;;13.93;7.27;;;16.80;99.90;;;;;;5076184;28;20467;-56
2022/10/13 10:19:47;;;;;;;13.30;7.47;;;16.80;99.90;;;;;;5075717;28;20961;-56
2022/10/13 10:22:25;;;;;;;10.30;8.00;;;16.80;99.90;;;;;;5073282;28;20451;-56
2022/10/13 10:25:01;;;;;;;9.53;7.00;;;16.70;99.90;;;;;;5075708;28;20510;-56
2022/10/13 10:27:35;;;;;;;16.00;7.90;;;16.70;99.90;;;;;;5075188;28;20446;-56
2022/10/13 10:30:05;;;;;;;10.73;7.00;;;16.50;99.90;;;;;;5072810;28;20469;-56
2022/10/13 10:32:40;;;;;;;7.87;7.07;;;16.50;99.90;;;;;;5075200;28;20472;-56
2022/10/13 10:35:14;;;;;;;14.23;7.97;;;16.50;99.90;;;;;;5075543;28;20493;-56
2022/10/13 10:37:57;;;;;;;13.13;7.50;;;16.40;99.90;;;;;;5073870;28;20436;-56
2022/10/13 10:40:36;;;;;;;8.63;6.77;;;16.50;99.90;;;;;;5075464;28;20417;-56
2022/10/13 10:43:30;;;;;;;8.60;7.40;;;16.50;99.90;;;;;;5073246;28;20813;-56
2022/10/13 10:45:59;;;;;;;11.30;7.00;;;16.50;99.90;;;;;;5075095;28;20833;-56
2022/10/13 10:48:32;;;;;;;9.90;7.73;;;16.60;99.90;;;;;;5074836;28;20527;-56
2022/10/13 10:51:00;;;;;;;12.67;7.13;;;16.50;99.90;;;;;;5073526;28;20978;-56
2022/10/13 10:53:35;;;;;;;8.80;7.33;;;16.60;99.90;;;;;;5074775;28;20475;-56
2022/10/13 10:56:09;;;;;;;11.30;7.90;;;16.60;99.90;;;;;;5075073;28;20424;-56
2022/10/13 10:58:45;;;;;;;8.30;7.43;;;16.70;99.90;;;;;;5073479;28;20440;-56
2022/10/13 11:01:27;;;;;;;8.80;7.47;;;16.80;99.90;;;;;;5075303;28;20420;-56
2022/10/13 11:03:58;;;;;;;15.97;7.50;;;16.80;99.90;;;;;;5074865;28;20475;-56
2022/10/13 11:06:34;;;;;;;11.00;7.77;;;16.90;99.90;;;;;;5073658;28;20473;-56
2022/10/13 11:09:01;;;;;;;9.43;7.53;;;16.90;99.90;;;;;;5075173;28;20428;-56
2022/10/13 11:11:37;;;;;;;11.70;7.40;;;17.00;99.90;;;;;;5074537;28;20931;-56
2022/10/13 11:14:26;;;;;;;10.60;7.23;;;16.90;99.90;;;;;;5072975;28;20523;-56
2022/10/13 11:17:18;;;;;;;9.37;7.30;;;17.00;99.90;;;;;;5074638;28;20470;-56
2022/10/13 11:19:48;;;;;;;13.33;6.57;;;17.00;99.90;;;;;;5060285;28;20452;-56
2022/10/13 11:22:18;;;;;;;15.40;7.73;;;17.30;99.90;;;;;;5074319;28;20468;-56
2022/10/13 11:25:03;;;;;;;11.00;7.37;;;17.30;99.90;;;;;;5073907;28;20535;-56
2022/10/13 11:27:41;;;;;;;6.80;6.20;;;17.30;99.90;;;;;;5073294;28;20436;-56
2022/10/13 11:30:48;;;;;;;10.00;7.30;;;17.30;99.90;;;;;;5074064;28;20486;-56
2022/10/13 11:33:51;;;;;;;7.37;6.40;;;17.20;99.90;;;;;;5074083;28;20495;-56
2022/10/13 11:36:46;;;;;;;9.97;7.27;;;17.00;99.90;;;;;;5073452;28;21010;-57
2022/10/13 11:39:41;;;;;;;10.13;7.23;;;17.00;99.90;;;;;;5074457;28;20768;-56
2022/10/13 11:42:20;;;;;;;8.60;6.30;;;17.10;99.90;;;;;;5073192;28;20471;-56
2022/10/13 11:44:54;;;;;;;10.00;6.40;;;17.30;99.90;;;;;;5074231;28;20468;-57
2022/10/13 11:47:41;;;;;;;12.27;8.10;;;17.50;99.90;;;;;;5072009;28;20488;-56
2022/10/13 11:50:18;;;;;;;7.80;6.47;;;17.60;99.90;;;;;;5072803;28;20460;-56
2022/10/13 11:53:02;;;;;;;9.57;6.50;;;17.50;99.90;;;;;;5074036;28;20958;-57
2022/10/13 11:55:38;;;;;;;10.70;6.70;;;17.60;99.90;;;;;;5074491;28;20424;-57
2022/10/13 11:58:09;;;;;;;10.13;6.93;;;17.90;99.90;;;;;;5072255;28;21107;-56
2022/10/13 12:00:36;;;;;;;8.47;7.10;;;18.40;99.90;;;;;;5074220;28;20451;-55
2022/10/13 12:03:04;;;;;;;7.17;6.53;;;18.80;99.90;;;;;;5073981;28;20468;-55
2022/10/13 12:05:32;;;;;;;9.00;6.10;;;18.80;99.90;;;;;;5072025;28;20444;-56
2022/10/13 12:08:04;;;;;;;10.80;7.20;;;18.60;99.90;;;;;;5074046;28;20502;-55
2022/10/13 12:10:34;;;;;;;6.83;6.13;;;18.60;99.90;;;;;;5073905;28;20460;-56
2022/10/13 12:13:03;;;;;;;10.90;6.33;;;18.70;99.90;;;;;;5072112;28;20478;-56
2022/10/13 12:15:35;;;;;;;8.60;6.53;;;18.60;99.90;;;;;;5073534;28;20448;-55
2022/10/13 12:18:18;;;;;;;7.30;6.00;;;18.50;99.90;;;;;;5074128;28;20488;-56
2022/10/13 12:20:52;;;;;;;13.13;5.93;;;18.50;99.90;;;;;;5072427;28;20429;-56
2022/10/13 12:23:19;;;;;;;10.40;5.83;;;18.50;99.90;;;;;;5073486;28;20955;-56
2022/10/13 12:25:55;;;;;;;7.70;5.20;;;18.50;99.90;;;;;;5073084;28;20480;-55
2022/10/13 12:28:24;;;;;;;7.53;6.10;;;18.60;99.90;;;;;;5072311;28;20504;-56
2022/10/13 12:30:52;;;;;;;12.87;6.20;;;18.50;99.90;;;;;;5072617;28;21006;-56
2022/10/13 12:33:27;;;;;;;10.73;6.97;;;18.70;99.90;;;;;;5073061;28;20468;-56
2022/10/13 12:35:55;;;;;;;7.90;5.57;;;18.60;99.90;;;;;;5072307;28;20511;-55
2022/10/13 12:38:24;;;;;;;5.97;5.37;;;18.90;99.90;;;;;;5072789;28;20535;-55
2022/10/13 12:40:53;;;;;;;11.10;5.97;;;;;;;;;;5073435;28;20444;-56
2022/10/13 12:43:25;;;;;;;10.97;5.70;;;19.20;99.90;;;;;;5071757;28;20468;-56
2022/10/13 12:45:52;;;;;;;7.50;5.57;;;19.70;99.90;;;;;;5072749;28;20432;-56
2022/10/13 12:48:35;;;;;;;6.97;5.57;;;19.50;99.90;;;;;;5072762;28;20550;-57
2022/10/13 12:51:18;;;;;;;8.70;5.53;;;19.60;99.90;;;;;;5072979;28;20533;-56
2022/10/13 12:53:46;;;;;;;5.60;5.10;;;19.60;99.90;;;;;;5072812;28;21112;-57